Time;durP1;ratioP1;P1;durP2;ratioP2;P2;SDS_P1;SDS_P2;PMS_P1;PMS_P2;Temp;Humidity;BMP_temperature;BMP_pressure;BME280_temperature;BME280_humidity;BME280_pressure;Samples;Min_cycle;Max_cycle;Signal;HPM_P1;HPM_P2
2023/12/27 00:00:58;;;;;;;10.93;1.77;;;;;;;6.54;78.92;100337.84;5017526;28;20534;-78
2023/12/27 00:03:25;;;;;;;11.13;2.10;;;;;;;6.53;78.98;100335.31;5013327;28;20413;-77
2023/12/27 00:05:52;;;;;;;9.18;2.55;;;;;;;6.51;79.04;100343.22;5013069;28;20105;-78
2023/12/27 00:08:19;;;;;;;7.90;2.42;;;;;;;6.49;79.26;100345.88;5019050;28;20512;-79
2023/12/27 00:10:46;;;;;;;7.85;1.70;;;;;;;6.47;78.90;100352.03;5014203;28;20104;-77
2023/12/27 00:13:12;;;;;;;10.02;2.08;;;;;;;6.46;79.53;100347.69;5032648;28;20482;-77
2023/12/27 00:15:44;;;;;;;8.85;2.17;;;;;;;6.45;79.59;100344.25;5014981;28;20076;-80
2023/12/27 00:18:11;;;;;;;8.53;2.43;;;;;;;6.47;79.80;100346.81;5030238;28;20057;-75
2023/12/27 00:20:38;;;;;;;10.38;2.40;;;;;;;6.48;80.28;100343.28;5013160;28;20050;-78
2023/12/27 00:23:05;;;;;;;10.23;2.30;;;;;;;6.50;80.35;100349.31;5012898;28;20073;-79
2023/12/27 00:25:31;;;;;;;7.03;2.00;;;;;;;6.54;80.65;100344.88;5012624;28;20526;-79
2023/12/27 00:30:35;;;;;;;9.45;1.90;;;;;;;6.58;80.41;100352.56;5130120;22;20064;-78
2023/12/27 00:33:01;;;;;;;10.25;2.05;;;;;;;6.62;80.04;100350.72;5013310;28;20057;-79
2023/12/27 00:35:28;;;;;;;6.63;1.90;;;;;;;6.63;79.84;100360.28;5013824;28;20046;-80
2023/12/27 00:37:55;;;;;;;8.80;2.20;;;;;;;6.64;79.79;100362.84;5009922;28;20132;-79
2023/12/27 00:40:22;;;;;;;9.88;2.33;;;;;;;6.67;79.67;100363.63;5033025;28;20116;-78
2023/12/27 00:42:48;;;;;;;7.55;1.75;;;;;;;6.67;79.38;100361.03;5032473;28;20095;-79
2023/12/27 00:45:15;;;;;;;9.73;2.15;;;;;;;6.67;79.26;100361.03;5032803;28;20084;-79
2023/12/27 00:47:48;;;;;;;7.60;2.20;;;;;;;6.64;79.19;100360.22;5022751;28;20054;-81
2023/12/27 00:50:15;;;;;;;16.20;1.92;;;;;;;6.66;79.63;100360.19;4995810;28;20046;-79
2023/12/27 00:52:41;;;;;;;10.43;1.55;;;;;;;6.65;79.61;100364.56;4995719;28;20141;-81
2023/12/27 00:55:08;;;;;;;6.50;1.80;;;;;;;6.65;79.70;100355.84;5013058;28;20089;-79
2023/12/27 00:57:34;;;;;;;7.65;1.70;;;;;;;6.66;79.04;100352.34;5017802;28;20077;-81
2023/12/27 01:00:03;;;;;;;6.47;1.83;;;;;;;6.67;78.83;100347.94;5012733;28;20056;-81
2023/12/27 01:02:30;;;;;;;13.00;1.80;;;;;;;6.65;79.04;100348.84;5013523;28;20050;-79
2023/12/27 01:04:56;;;;;;;8.25;2.30;;;;;;;6.65;78.76;100346.25;5013064;28;20046;-80
2023/12/27 01:07:23;;;;;;;8.70;2.00;;;;;;;6.64;78.78;100348.91;5012942;28;20060;-80
2023/12/27 01:09:50;;;;;;;6.18;2.17;;;;;;;6.61;78.97;100349.84;5027526;28;20524;-81
2023/12/27 01:12:16;;;;;;;5.38;2.10;;;;;;;6.59;78.74;100343.81;5032418;28;20136;-79
2023/12/27 01:14:43;;;;;;;9.70;2.08;;;;;;;6.59;78.97;100346.44;5032243;28;20068;-80
2023/12/27 01:17:09;;;;;;;8.70;2.55;;;;;;;6.57;78.54;100339.53;5032578;28;20144;-80
2023/12/27 01:19:36;;;;;;;10.00;2.67;;;;;;;6.54;78.66;100343.09;5021379;28;20049;-80
2023/12/27 01:22:02;;;;;;;10.73;2.72;;;;;;;6.53;78.82;100333.53;5012614;28;20082;-80
2023/12/27 01:24:29;;;;;;;7.43;2.38;;;;;;;6.52;79.16;100331.84;4995077;28;20057;-81
2023/12/27 01:26:55;;;;;;;7.68;2.63;;;;;;;6.51;78.83;100337.97;5012141;28;20049;-79
2023/12/27 01:29:22;;;;;;;9.80;3.28;;;;;;;6.51;79.04;100336.19;5011251;28;20133;-79
2023/12/27 01:31:48;;;;;;;11.35;3.92;;;;;;;6.51;78.97;100341.44;5012083;28;20060;-78
2023/12/27 01:34:15;;;;;;;7.63;4.40;;;;;;;6.50;79.27;100339.72;5011818;28;20053;-80
2023/12/27 01:36:49;;;;;;;12.90;5.03;;;;;;;6.51;79.25;100335.34;5018607;28;20521;-78
2023/12/27 01:39:15;;;;;;;8.05;3.50;;;;;;;6.52;79.16;100342.28;5013172;28;20502;-80
2023/12/27 01:41:42;;;;;;;9.02;4.13;;;;;;;6.51;78.88;100341.44;5031176;28;20057;-79
2023/12/27 01:44:09;;;;;;;13.65;3.50;;;;;;;6.51;78.71;100341.44;5013921;28;20144;-78
2023/12/27 01:46:35;;;;;;;9.52;3.05;;;;;;;6.51;78.98;100335.34;5011454;28;20124;-79
2023/12/27 01:49:02;;;;;;;11.20;2.83;;;;;;;6.51;79.03;100340.59;5012077;28;20123;-80
2023/12/27 01:51:30;;;;;;;8.93;2.50;;;;;;;6.51;79.29;100346.66;5031070;28;20516;-78
2023/12/27 01:54:00;;;;;;;7.03;2.72;;;;;;;6.51;79.54;100349.28;5030559;28;20053;-80
2023/12/27 01:56:27;;;;;;;7.20;2.50;;;;;;;6.52;79.31;100342.28;5031225;28;20103;-81
2023/12/27 01:58:54;;;;;;;5.72;1.80;;;;;;;6.51;79.49;100341.44;5013285;28;20129;-79
2023/12/27 02:01:36;;;;;;;11.25;2.28;;;;;;;6.52;79.69;100339.69;5011299;28;20100;-80
2023/12/27 02:04:03;;;;;;;6.13;2.13;;;;;;;6.54;79.56;100350.94;5011541;28;20133;-78
2023/12/27 02:06:30;;;;;;;7.32;2.25;;;;;;;6.55;79.18;100355.28;5011153;28;20347;-80
2023/12/27 02:08:57;;;;;;;7.28;2.28;;;;;;;6.55;79.39;100350.06;5011701;28;20053;-80
2023/12/27 02:11:23;;;;;;;6.82;2.38;;;;;;;6.55;79.10;100334.38;5011403;28;20054;-79
2023/12/27 02:13:50;;;;;;;7.50;2.60;;;;;;;6.55;79.18;100336.97;5011186;28;20112;-84
2023/12/27 02:16:20;;;;;;;11.85;2.67;;;;;;;6.56;79.21;100337.81;5010993;28;20140;-79
2023/12/27 02:18:48;;;;;;;8.07;3.20;;;;;;;6.56;79.06;100343.03;5029612;28;20065;-80
2023/12/27 02:21:16;;;;;;;8.23;3.60;;;;;;;6.56;79.33;100343.03;5030695;28;20053;-79
2023/12/27 02:23:48;;;;;;;11.30;3.47;;;;;;;6.56;79.23;100345.66;5013443;28;20046;-78
2023/12/27 02:26:15;;;;;;;14.63;4.13;;;;;;;6.59;79.43;100340.34;5031043;28;20588;-79
2023/12/27 02:28:42;;;;;;;11.63;3.50;;;;;;;6.57;78.98;100343.00;5014852;28;20046;-81
2023/12/27 02:31:08;;;;;;;9.88;3.40;;;;;;;6.56;79.02;100338.69;4993278;28;20052;-78
2023/12/27 02:33:35;;;;;;;8.75;3.45;;;;;;;6.56;79.18;100349.16;4993446;28;20066;-79
2023/12/27 02:36:02;;;;;;;14.07;4.90;;;;;;;6.54;78.85;100343.09;5011066;28;20057;-78
2023/12/27 02:38:28;;;;;;;12.43;5.20;;;;;;;6.54;79.18;100340.47;5021568;28;20052;-80
2023/12/27 02:40:55;;;;;;;11.73;5.30;;;;;;;6.53;78.82;100346.63;5030682;28;20049;-78
2023/12/27 02:43:22;;;;;;;10.27;4.38;;;;;;;6.54;79.22;100350.09;5030627;28;20132;-80
2023/12/27 02:45:48;;;;;;;7.85;3.25;;;;;;;6.51;79.38;100336.19;5030610;28;20080;-79
2023/12/27 02:48:15;;;;;;;15.27;4.20;;;;;;;6.53;79.14;100330.09;5029035;28;20140;-78
2023/12/27 02:50:44;;;;;;;16.58;5.32;;;;;;;6.51;79.37;100322.28;5027677;28;20050;-80
2023/12/27 02:53:11;;;;;;;8.52;5.70;;;;;;;6.51;79.16;100323.13;5030410;28;20053;-80
2023/12/27 02:55:38;;;;;;;8.32;5.13;;;;;;;6.51;79.55;100320.50;5012945;28;20055;-79
2023/12/27 02:58:04;;;;;;;10.27;4.45;;;;;;;6.52;79.40;100326.59;5029991;28;20136;-79
2023/12/27 03:00:35;;;;;;;9.82;4.30;;;;;;;6.52;79.88;100316.13;5030172;28;20049;-81
2023/12/27 03:03:02;;;;;;;9.35;3.92;;;;;;;6.54;79.97;100314.31;5011373;28;20092;-80
2023/12/27 03:05:30;;;;;;;7.68;3.63;;;;;;;6.56;80.08;100314.28;5031112;28;20060;-79
2023/12/27 03:07:56;;;;;;;13.15;3.92;;;;;;;6.58;79.85;100302.03;5034036;28;20122;-79
2023/12/27 03:10:23;;;;;;;7.15;3.20;;;;;;;6.60;79.99;100308.03;5016691;28;20149;-85
2023/12/27 03:12:50;;;;;;;8.00;3.30;;;;;;;6.62;80.15;100296.63;5032981;28;20130;-80
2023/12/27 03:15:16;;;;;;;12.05;2.88;;;;;;;6.64;80.26;100289.59;5033848;28;20146;-82
2023/12/27 03:17:43;;;;;;;6.00;3.28;;;;;;;6.65;80.36;100280.84;5016072;28;20049;-80
2023/12/27 03:20:10;;;;;;;6.65;2.63;;;;;;;6.68;80.52;100284.25;5033856;28;20506;-79
2023/12/27 03:22:36;;;;;;;5.13;2.97;;;;;;;6.70;80.37;100275.47;5025413;28;20053;-81
2023/12/27 03:25:03;;;;;;;11.13;4.13;;;;;;;6.71;80.30;100263.22;5013975;28;20598;-81
2023/12/27 03:27:30;;;;;;;6.97;3.13;;;;;;;6.74;80.32;100260.53;5014086;28;20046;-81
2023/12/27 03:29:56;;;;;;;10.40;4.22;;;;;;;6.76;79.90;100259.56;5013744;28;20459;-79
2023/12/27 03:32:24;;;;;;;7.45;3.20;;;;;;;6.77;79.70;100253.41;5017435;28;20053;-81
2023/12/27 03:34:50;;;;;;;5.72;2.97;;;;;;;6.79;79.95;100253.38;5033354;28;20132;-78
2023/12/27 03:37:17;;;;;;;5.32;2.67;;;;;;;6.81;80.07;100258.56;5033602;28;20144;-83
2023/12/27 03:39:43;;;;;;;7.45;3.22;;;;;;;6.82;80.05;100253.28;5033376;28;20053;-81
2023/12/27 03:42:12;;;;;;;6.22;2.90;;;;;;;6.84;79.77;100254.06;5033303;28;20502;-81
2023/12/27 03:44:39;;;;;;;8.63;2.88;;;;;;;6.86;79.51;100267.09;5025190;28;20076;-79
2023/12/27 03:47:05;;;;;;;6.63;2.97;;;;;;;6.86;79.23;100270.59;5033659;28;20061;-81
2023/12/27 03:49:32;;;;;;;7.53;2.80;;;;;;;6.86;78.70;100277.56;5033271;28;20136;-80
2023/12/27 03:51:58;;;;;;;6.90;3.13;;;;;;;6.83;78.38;100275.91;5015605;28;20053;-81
2023/12/27 03:54:25;;;;;;;7.50;3.50;;;;;;;6.80;78.28;100277.78;5032460;28;20124;-79
2023/12/27 03:56:51;;;;;;;7.65;3.25;;;;;;;6.76;78.20;100274.38;5033048;28;20059;-79
2023/12/27 03:59:18;;;;;;;7.03;3.65;;;;;;;6.72;78.38;100281.50;5032875;28;20049;-79
2023/12/27 04:01:44;;;;;;;7.43;3.60;;;;;;;6.70;78.48;100283.31;5015570;28;20099;-81
2023/12/27 04:04:13;;;;;;;4.75;3.33;;;;;;;6.68;78.33;100284.25;5023044;28;20485;-80
2023/12/27 04:06:39;;;;;;;9.07;3.53;;;;;;;6.65;78.93;100287.81;5013362;28;20066;-79
2023/12/27 04:09:07;;;;;;;11.60;4.20;;;;;;;6.63;78.70;100282.66;5013085;28;20046;-78
2023/12/27 04:11:34;;;;;;;10.25;5.75;;;;;;;6.61;78.17;100284.47;5012880;28;20557;-79
2023/12/27 04:14:00;;;;;;;8.48;5.40;;;;;;;6.56;78.39;100278.53;5018685;28;20045;-78
2023/12/27 04:16:27;;;;;;;7.95;5.25;;;;;;;6.52;78.73;100271.69;5032483;28;20052;-81
2023/12/27 04:18:53;;;;;;;11.23;5.13;;;;;;;6.50;78.84;100276.09;5031856;28;20414;-80
2023/12/27 04:21:20;;;;;;;8.90;4.68;;;;;;;6.49;79.13;100271.75;5015115;28;20498;-80
2023/12/27 04:23:47;;;;;;;7.55;4.75;;;;;;;6.49;79.26;100270.00;5031314;28;20053;-78
2023/12/27 04:26:14;;;;;;;8.05;4.60;;;;;;;6.49;79.42;100258.69;5021717;28;20482;-79
2023/12/27 04:28:40;;;;;;;8.88;4.10;;;;;;;6.50;79.38;100269.09;5014908;28;20140;-80
2023/12/27 04:31:06;;;;;;;11.70;4.72;;;;;;;6.52;79.49;100274.28;5032711;28;20525;-78
2023/12/27 04:33:33;;;;;;;14.93;5.05;;;;;;;6.52;79.67;100269.06;5032644;28;20050;-79
2023/12/27 04:36:00;;;;;;;11.65;4.85;;;;;;;6.54;79.56;100267.25;5028374;28;20406;-78
2023/12/27 04:38:26;;;;;;;7.72;4.18;;;;;;;6.55;79.53;100261.13;5028408;28;20065;-78
2023/12/27 04:40:54;;;;;;;9.57;4.55;;;;;;;6.58;79.72;100273.25;5032263;28;20763;-78
2023/12/27 04:43:20;;;;;;;13.95;5.15;;;;;;;6.59;79.72;100269.72;5032487;28;20084;-79
2023/12/27 04:45:48;;;;;;;10.60;5.47;;;;;;;6.60;79.44;100263.56;5032450;28;20053;-81
2023/12/27 04:48:15;;;;;;;9.32;5.22;;;;;;;6.60;79.28;100261.81;4995523;28;20046;-80
2023/12/27 04:50:41;;;;;;;10.45;5.07;;;;;;;6.60;79.55;100256.59;5012543;28;20053;-81
2023/12/27 04:53:09;;;;;;;9.60;5.13;;;;;;;6.61;79.28;100252.19;5012212;28;20042;-78
2023/12/27 04:55:35;;;;;;;10.38;5.18;;;;;;;6.61;79.40;100257.44;5012151;28;20056;-79
2023/12/27 04:58:02;;;;;;;9.25;5.07;;;;;;;6.62;79.64;100257.38;5025941;28;20087;-79
2023/12/27 05:00:28;;;;;;;9.45;5.40;;;;;;;6.62;79.32;100265.22;5032015;28;20140;-79
2023/12/27 05:02:55;;;;;;;11.88;5.85;;;;;;;6.63;79.42;100260.88;5031958;28;20140;-78
2023/12/27 05:05:21;;;;;;;9.98;5.03;;;;;;;6.62;79.63;100262.63;5031741;28;20049;-79
2023/12/27 05:07:48;;;;;;;10.15;5.00;;;;;;;6.65;79.67;100259.03;5004714;28;20128;-78
2023/12/27 05:10:14;;;;;;;12.20;5.40;;;;;;;6.65;79.45;100259.03;5012200;28;20529;-80
2023/12/27 05:12:41;;;;;;;7.35;4.97;;;;;;;6.66;79.50;100250.31;4994447;28;20499;-79
2023/12/27 05:15:08;;;;;;;7.53;4.40;;;;;;;6.66;79.21;100250.31;5011886;28;20062;-79
2023/12/27 05:17:35;;;;;;;11.93;5.18;;;;;;;6.66;79.24;100245.09;4998991;28;20041;-78
2023/12/27 05:20:01;;;;;;;9.13;5.32;;;;;;;6.65;79.30;100249.44;5030784;28;20049;-80
2023/12/27 05:22:29;;;;;;;9.88;5.30;;;;;;;6.65;79.23;100248.59;5013696;28;20140;-79
2023/12/27 05:24:56;;;;;;;10.07;4.72;;;;;;;6.64;78.76;100247.75;5014111;28;20092;-78
2023/12/27 05:27:22;;;;;;;7.32;5.13;;;;;;;6.65;79.05;100248.59;5030812;28;20057;-80
2023/12/27 05:29:49;;;;;;;7.47;4.88;;;;;;;6.65;78.78;100248.59;5012573;28;20054;-79
2023/12/27 05:32:16;;;;;;;10.07;5.30;;;;;;;6.63;78.99;100248.66;5011604;28;20145;-78
2023/12/27 05:34:43;;;;;;;11.52;5.10;;;;;;;6.62;78.75;100243.47;5011772;28;20136;-78
2023/12/27 05:37:09;;;;;;;9.63;5.50;;;;;;;6.61;79.00;100242.59;5011406;28;20499;-79
2023/12/27 05:39:36;;;;;;;14.40;5.82;;;;;;;6.60;78.82;100246.13;5024880;28;20124;-78
2023/12/27 05:42:03;;;;;;;10.65;5.93;;;;;;;6.60;79.04;100240.03;5031277;28;20544;-80
2023/12/27 05:44:30;;;;;;;10.52;5.53;;;;;;;6.58;79.09;100245.31;5029963;28;20477;-80
2023/12/27 05:46:57;;;;;;;9.63;5.53;;;;;;;6.58;78.91;100239.25;5031180;28;20050;-79
2023/12/27 05:49:23;;;;;;;9.00;5.82;;;;;;;6.58;79.11;100237.47;5021705;28;20068;-79
2023/12/27 05:51:50;;;;;;;8.48;5.25;;;;;;;6.57;79.00;100246.22;4993958;28;20064;-80
2023/12/27 05:54:18;;;;;;;11.35;6.25;;;;;;;6.58;79.30;100240.06;5011387;28;20053;-79
2023/12/27 05:56:45;;;;;;;14.30;5.85;;;;;;;6.58;79.19;100241.84;5011439;28;20057;-78
2023/12/27 05:59:11;;;;;;;10.35;6.15;;;;;;;6.57;79.26;100230.53;5015447;28;20056;-78
2023/12/27 06:01:44;;;;;;;11.85;5.97;;;;;;;6.59;79.48;100222.63;5014268;28;20120;-83
2023/12/27 06:04:11;;;;;;;9.65;5.18;;;;;;;6.59;79.27;100218.28;5011160;28;20042;-79
2023/12/27 06:06:37;;;;;;;11.93;5.78;;;;;;;6.60;79.47;100230.44;4993618;28;20053;-80
2023/12/27 06:09:04;;;;;;;13.18;5.95;;;;;;;6.59;79.28;100220.88;5012122;28;20054;-79
2023/12/27 06:11:30;;;;;;;11.43;5.57;;;;;;;6.61;79.40;100218.19;5030189;28;20489;-81
2023/12/27 06:13:57;;;;;;;11.95;5.40;;;;;;;6.61;79.63;100205.97;5030699;28;20137;-78
2023/12/27 06:16:23;;;;;;;14.32;5.78;;;;;;;6.62;79.72;100210.31;5030582;28;20544;-80
2023/12/27 06:18:54;;;;;;;8.70;5.13;;;;;;;6.63;79.93;100214.66;5030740;28;20048;-79
2023/12/27 06:21:20;;;;;;;12.80;5.47;;;;;;;6.65;80.30;100218.06;5013132;28;20053;-80
2023/12/27 06:23:47;;;;;;;13.57;5.43;;;;;;;6.67;80.26;100214.53;5010725;28;20133;-80
2023/12/27 06:26:13;;;;;;;9.90;5.35;;;;;;;6.68;80.27;100216.22;4993236;28;20585;-78
2023/12/27 06:31:46;;;;;;;14.38;5.22;;;;;;;6.74;79.95;100205.56;5113583;23;20548;-75
2023/12/27 06:34:12;;;;;;;13.77;5.55;;;;;;;6.74;79.91;100195.97;4991347;28;20142;-78
2023/12/27 06:36:40;;;;;;;12.88;5.43;;;;;;;6.78;79.94;100196.72;4991696;28;20126;-77
2023/12/27 06:41:34;;;;;;;10.50;5.30;;;;;;;6.79;80.01;100187.94;5006236;23;20058;-77
2023/12/27 06:44:01;;;;;;;11.90;5.70;;;;;;;6.81;80.00;100196.63;4958925;28;20113;-78
2023/12/27 06:46:27;;;;;;;12.35;6.03;;;;;;;6.83;80.23;100192.19;4958295;28;20054;-75
2023/12/27 06:48:54;;;;;;;12.52;5.93;;;;;;;6.84;80.44;100201.72;4958944;28;20043;-77
2023/12/27 06:51:21;;;;;;;10.40;5.68;;;;;;;6.88;80.42;100197.25;4966511;28;20051;-76
2023/12/27 06:53:47;;;;;;;13.52;5.85;;;;;;;6.88;80.14;100179.78;4959035;28;20475;-77
2023/12/27 06:56:15;;;;;;;16.75;6.05;;;;;;;6.89;80.38;100189.34;4958847;28;20098;-76
2023/12/27 06:58:41;;;;;;;10.50;6.10;;;;;;;6.91;80.06;100182.28;4958585;28;20405;-78
2023/12/27 07:01:09;;;;;;;16.52;5.72;;;;;;;6.93;80.32;100187.47;4959557;28;20048;-75
2023/12/27 07:03:36;;;;;;;13.15;6.05;;;;;;;6.94;80.31;100181.34;4959083;28;20069;-77
2023/12/27 07:06:03;;;;;;;13.60;6.65;;;;;;;6.96;80.35;100191.75;4957295;28;20047;-76
2023/12/27 07:08:31;;;;;;;12.50;6.43;;;;;;;6.98;80.34;100188.16;4958608;28;20412;-78
2023/12/27 07:10:57;;;;;;;14.77;6.68;;;;;;;6.99;80.51;100192.50;4958380;28;20572;-73
2023/12/27 07:13:24;;;;;;;12.30;6.43;;;;;;;7.01;80.34;100184.59;4977438;28;20054;-72
2023/12/27 07:15:50;;;;;;;17.35;7.22;;;;;;;7.03;80.21;100181.00;4977599;28;20051;-77
2023/12/27 07:18:17;;;;;;;16.45;9.20;;;;;;;7.05;80.27;100186.19;4977992;28;20059;-76
2023/12/27 07:20:44;;;;;;;14.30;7.97;;;;;;;7.08;80.21;100177.38;4977947;28;20051;-77
2023/12/27 07:23:10;;;;;;;16.08;7.68;;;;;;;7.10;80.35;100170.34;4962843;28;20044;-77
2023/12/27 07:25:37;;;;;;;20.40;7.78;;;;;;;7.11;80.50;100166.78;4958454;28;20555;-76
2023/12/27 07:28:04;;;;;;;14.85;8.65;;;;;;;7.13;80.49;100163.22;4958798;28;20098;-73
2023/12/27 07:30:30;;;;;;;17.70;8.75;;;;;;;7.16;80.54;100154.38;4957794;28;20142;-74
2023/12/27 07:32:57;;;;;;;15.65;8.57;;;;;;;7.19;80.34;100156.03;4958798;28;20047;-75
2023/12/27 07:35:24;;;;;;;16.45;7.97;;;;;;;7.20;80.51;100157.75;4959048;28;20099;-76
2023/12/27 07:37:51;;;;;;;19.60;8.52;;;;;;;7.21;80.39;100147.22;4976384;28;20105;-76
2023/12/27 07:40:18;;;;;;;17.38;8.27;;;;;;;7.24;80.43;100148.88;4978047;28;20053;-76
2023/12/27 07:42:45;;;;;;;19.42;8.35;;;;;;;7.25;80.66;100142.75;4977991;28;20480;-77
2023/12/27 07:45:12;;;;;;;19.30;8.65;;;;;;;7.27;80.57;100140.91;4977922;28;20402;-76
2023/12/27 07:47:38;;;;;;;23.30;8.98;;;;;;;7.29;80.31;100128.63;4971769;28;20051;-76
2023/12/27 07:50:05;;;;;;;16.33;7.82;;;;;;;7.31;80.68;100121.56;4959007;28;20058;-77
2023/12/27 07:52:32;;;;;;;20.80;9.13;;;;;;;7.33;80.59;100119.72;4955340;28;20058;-72
2023/12/27 07:54:59;;;;;;;22.25;9.23;;;;;;;7.34;80.74;100113.59;4955539;28;20091;-76
2023/12/27 07:57:26;;;;;;;19.88;9.02;;;;;;;7.36;80.58;100119.59;4962789;28;20125;-74
2023/12/27 07:59:57;;;;;;;19.35;8.50;;;;;;;7.38;80.28;100122.16;4974607;28;20121;-77
2023/12/27 08:02:24;;;;;;;19.27;8.57;;;;;;;7.38;80.59;100125.66;4974409;28;20062;-76
2023/12/27 08:04:50;;;;;;;16.83;9.35;;;;;;;7.40;80.33;100120.38;4974404;28;20134;-77
2023/12/27 08:07:17;;;;;;;13.15;8.48;;;;;;;7.42;80.49;100118.53;4969381;28;20059;-75
2023/12/27 08:09:44;;;;;;;16.65;8.85;;;;;;;7.45;80.36;100122.78;4955867;28;20456;-76
2023/12/27 08:12:11;;;;;;;18.48;9.55;;;;;;;7.46;80.54;100109.63;4916945;23;20093;-77
2023/12/27 08:14:38;;;;;;;20.17;8.98;;;;;;;7.48;80.46;100102.56;4992753;28;20061;-71
2023/12/27 08:17:04;;;;;;;18.55;9.23;;;;;;;7.49;80.50;100100.81;4992930;28;20571;-76
2023/12/27 08:19:31;;;;;;;18.25;9.65;;;;;;;7.49;80.17;100099.06;4993046;28;20050;-77
2023/12/27 08:21:57;;;;;;;18.95;8.90;;;;;;;7.49;80.12;100085.97;4993677;28;20206;-76
2023/12/27 08:24:25;;;;;;;15.75;8.88;;;;;;;7.49;80.08;100093.81;4993622;28;20534;-74
2023/12/27 08:26:51;;;;;;;22.42;9.02;;;;;;;7.48;79.72;100081.59;4993365;28;20545;-77
2023/12/27 08:29:18;;;;;;;14.75;9.70;;;;;;;7.47;79.85;100081.69;4976982;28;20085;-76
2023/12/27 08:31:44;;;;;;;18.48;8.52;;;;;;;7.47;80.10;100081.69;4973762;28;20146;-75
2023/12/27 08:34:11;;;;;;;18.27;8.88;;;;;;;7.47;80.13;100084.31;4974065;28;20154;-76
2023/12/27 08:36:39;;;;;;;17.80;9.00;;;;;;;7.47;80.17;100084.31;4972544;28;20086;-77
2023/12/27 08:39:06;;;;;;;14.98;8.15;;;;;;;7.48;80.31;100080.78;4984829;28;20113;-76
2023/12/27 08:41:34;;;;;;;15.10;8.75;;;;;;;7.49;80.30;100069.38;4993125;28;20050;-73
2023/12/27 08:44:01;;;;;;;16.88;9.02;;;;;;;7.50;79.88;100073.69;4993188;28;20549;-77
2023/12/27 08:46:28;;;;;;;16.05;9.00;;;;;;;7.51;80.21;100078.03;4993140;28;20484;-77
2023/12/27 08:48:55;;;;;;;15.68;8.38;;;;;;;7.53;80.40;100068.34;4985073;28;20641;-76
2023/12/27 08:51:22;;;;;;;18.35;9.20;;;;;;;7.52;79.91;100069.25;5008605;28;20088;-76
2023/12/27 08:53:49;;;;;;;20.10;8.68;;;;;;;7.53;80.05;100069.22;5011338;28;20085;-77
2023/12/27 08:56:15;;;;;;;13.60;8.38;;;;;;;7.54;80.26;100064.81;5012579;28;20054;-76
2023/12/27 08:58:42;;;;;;;15.43;8.45;;;;;;;7.54;79.98;100059.56;5007645;28;20047;-73
2023/12/27 09:01:08;;;;;;;16.90;8.32;;;;;;;7.54;79.80;100054.31;5283068;23;20082;-76
2023/12/27 09:03:35;;;;;;;16.90;8.07;;;;;;;7.55;79.98;100056.03;4972053;28;20073;-76
2023/12/27 09:06:02;;;;;;;17.77;7.80;;;;;;;7.55;80.34;100053.41;4971919;28;20047;-76
2023/12/27 09:08:29;;;;;;;14.60;8.38;;;;;;;7.56;80.48;100053.34;4972838;28;20133;-77
2023/12/27 09:10:55;;;;;;;16.58;9.00;;;;;;;7.58;80.30;100050.66;4973029;28;20082;-78
2023/12/27 09:13:22;;;;;;;18.80;8.98;;;;;;;7.59;80.23;100056.78;4973243;28;20534;-77
2023/12/27 09:15:48;;;;;;;15.43;8.25;;;;;;;7.59;80.13;100054.97;4971667;28;20531;-79
2023/12/27 09:18:15;;;;;;;13.10;7.45;;;;;;;7.62;80.55;100048.81;4958924;28;20043;-76
2023/12/27 09:20:42;;;;;;;19.50;8.05;;;;;;;7.63;80.63;100053.94;4953671;28;20058;-75
2023/12/27 09:23:10;;;;;;;15.63;7.78;;;;;;;7.66;80.79;100058.22;4953802;28;20063;-76
2023/12/27 09:25:36;;;;;;;15.88;8.13;;;;;;;7.69;80.91;100056.34;4953519;28;20047;-77
2023/12/27 09:28:03;;;;;;;17.50;7.28;;;;;;;7.74;81.00;100052.69;4952442;28;20047;-77
2023/12/27 09:30:30;;;;;;;17.35;8.40;;;;;;;7.75;81.03;100047.38;4953173;28;20479;-78
2023/12/27 09:32:56;;;;;;;20.02;8.10;;;;;;;7.80;80.94;100044.56;4952261;28;20043;-76
2023/12/27 09:35:23;;;;;;;15.07;8.43;;;;;;;7.83;81.10;100036.59;4953616;28;20061;-77
2023/12/27 09:37:50;;;;;;;17.92;8.25;;;;;;;7.86;80.75;100040.84;4958427;28;20093;-76
2023/12/27 09:40:16;;;;;;;14.68;8.23;;;;;;;7.89;80.52;100032.88;4971738;28;20078;-75
2023/12/27 09:42:45;;;;;;;14.88;7.78;;;;;;;7.92;80.54;100035.34;4972758;28;20097;-72
2023/12/27 09:45:16;;;;;;;13.98;7.53;;;;;;;7.94;80.09;100026.53;4973039;28;20047;-76
2023/12/27 09:47:45;;;;;;;20.17;7.25;;;;;;;7.97;80.77;100025.53;4986912;28;20066;-77
2023/12/27 09:52:47;;;;;;;15.13;7.85;;;;;;;8.03;80.74;100013.91;4940303;28;20060;-77
2023/12/27 09:55:14;;;;;;;19.17;8.40;;;;;;;8.06;80.72;100003.31;4934337;29;20134;-76
2023/12/27 09:57:41;;;;;;;17.25;8.07;;;;;;;8.09;81.01;100008.44;4933926;29;20091;-77
2023/12/27 10:00:12;;;;;;;15.40;7.28;;;;;;;8.13;80.49;100003.91;4949468;29;20445;-76
2023/12/27 10:02:42;;;;;;;16.65;7.05;;;;;;;8.16;80.62;99999.38;4953024;28;20051;-76
2023/12/27 10:05:19;;;;;;;16.25;7.47;;;;;;;8.18;79.80;99999.28;4953090;28;20047;-76
2023/12/27 10:07:45;;;;;;;16.00;7.05;;;;;;;8.23;80.82;99994.72;4952795;28;20057;-75
2023/12/27 10:10:12;;;;;;;12.27;6.07;;;;;;;8.26;81.06;99980.63;4944681;29;20051;-77
2023/12/27 10:12:55;;;;;;;14.18;6.63;;;;;;;8.30;80.91;99995.31;4952787;28;20130;-77
2023/12/27 10:15:22;;;;;;;16.67;6.10;;;;;;;8.35;81.25;99982.84;4952465;28;20393;-76
2023/12/27 10:17:49;;;;;;;12.48;6.35;;;;;;;8.37;81.15;99981.00;4952493;29;20054;-75
2023/12/27 10:20:43;;;;;;;16.55;6.13;;;;;;;8.37;79.90;99973.13;4939288;28;20048;-76
2023/12/27 10:23:10;;;;;;;13.10;5.78;;;;;;;8.47;81.56;99971.81;4937261;29;20061;-76
2023/12/27 10:25:40;;;;;;;12.85;5.85;;;;;;;8.51;81.29;99964.66;4948697;29;20134;-77
2023/12/27 10:28:06;;;;;;;13.88;5.45;;;;;;;8.53;81.30;99954.97;4933473;29;20103;-74
2023/12/27 10:30:33;;;;;;;12.88;5.43;;;;;;;8.57;81.32;99947.81;4933747;29;20059;-76
2023/12/27 10:33:01;;;;;;;15.07;5.70;;;;;;;8.59;81.35;99946.81;4932262;29;20063;-74
2023/12/27 10:35:31;;;;;;;12.00;5.10;;;;;;;8.64;80.89;99940.50;4934128;29;20056;-77
2023/12/27 10:38:04;;;;;;;11.18;5.03;;;;;;;8.64;80.45;99930.00;4945098;29;20098;-76
2023/12/27 10:40:33;;;;;;;9.10;4.70;;;;;;;8.67;80.60;99920.22;4952912;28;20142;-73
2023/12/27 10:43:00;;;;;;;16.02;4.95;;;;;;;8.70;80.79;99921.84;4951302;28;20501;-76
2023/12/27 10:45:26;;;;;;;12.18;4.93;;;;;;;8.71;80.78;99913.91;4952600;28;20102;-76
2023/12/27 10:48:00;;;;;;;11.68;4.70;;;;;;;8.70;80.05;99917.44;4944809;28;20150;-76
2023/12/27 10:50:29;;;;;;;13.70;5.00;;;;;;;8.72;80.67;99905.09;4952474;28;20051;-77
2023/12/27 10:53:03;;;;;;;7.50;4.60;;;;;;;8.72;80.04;99902.47;4952572;28;20098;-75
2023/12/27 10:55:31;;;;;;;11.48;4.05;;;;;;;8.75;80.32;99895.41;4952625;28;20055;-76
2023/12/27 10:58:00;;;;;;;11.60;5.10;;;;;;;8.76;80.55;99891.84;4939272;28;20047;-77
2023/12/27 11:00:28;;;;;;;11.85;4.93;;;;;;;8.75;80.42;99883.13;4933349;29;20087;-75
2023/12/27 11:02:57;;;;;;;11.18;4.93;;;;;;;8.75;80.77;99875.25;4933314;29;20048;-77
2023/12/27 11:05:29;;;;;;;13.20;4.78;;;;;;;8.77;80.68;99872.53;4933253;29;20524;-77
2023/12/27 11:07:57;;;;;;;11.18;5.25;;;;;;;8.77;80.53;99868.16;4943281;29;20063;-76
2023/12/27 11:10:28;;;;;;;12.75;4.70;;;;;;;8.76;80.59;99860.34;4952313;28;20055;-75
2023/12/27 11:12:59;;;;;;;9.20;4.45;;;;;;;8.76;80.34;99863.81;4952561;28;20047;-74
2023/12/27 11:15:26;;;;;;;10.48;4.47;;;;;;;8.79;80.84;99861.03;4952508;28;20051;-74
2023/12/27 11:17:59;;;;;;;9.45;4.30;;;;;;;8.79;80.76;99861.03;4943979;28;20058;-74
2023/12/27 11:20:28;;;;;;;11.02;4.55;;;;;;;8.81;81.00;99855.72;5023368;23;20097;-75
2023/12/27 11:22:55;;;;;;;10.70;5.10;;;;;;;8.83;80.82;99859.13;4989699;28;20058;-74
2023/12/27 11:25:21;;;;;;;11.77;5.00;;;;;;;8.84;80.74;99851.19;4991187;28;20059;-74
2023/12/27 11:27:48;;;;;;;7.97;4.47;;;;;;;8.85;81.06;99852.03;4990562;28;20042;-77
2023/12/27 11:30:15;;;;;;;7.95;4.30;;;;;;;8.85;81.05;99850.25;4975208;28;20058;-77
2023/12/27 11:32:42;;;;;;;9.55;4.85;;;;;;;8.87;80.76;99837.06;4975318;28;20444;-79
2023/12/27 11:35:30;;;;;;;10.40;5.18;;;;;;;8.89;80.99;99840.44;4975252;28;20137;-76
2023/12/27 11:38:13;;;;;;;9.57;4.53;;;;;;;8.87;80.08;99831.81;4974737;28;20080;-77
2023/12/27 11:40:40;;;;;;;7.47;4.70;;;;;;;8.92;81.04;99811.44;4992910;28;20082;-78